Time;durP1;ratioP1;P1;durP2;ratioP2;P2;SDS_P1;SDS_P2;PMS_P1;PMS_P2;Temp;Humidity;BMP_temperature;BMP_pressure;BME280_temperature;BME280_humidity;BME280_pressure;Samples;Min_cycle;Max_cycle;Signal;HPM_P1;HPM_P2
2022/03/11 00:00:22;;;;;;;17.47;9.30;;;;;;;-1.62;48.84;102400.86;1709885;83;21006;-71
2022/03/11 00:02:50;;;;;;;19.70;9.33;;;;;;;-1.63;48.90;102402.09;1710004;83;21029;-70
2022/03/11 00:05:18;;;;;;;20.07;10.00;;;;;;;-1.63;48.95;102405.95;1709812;83;21269;-72
2022/03/11 00:07:45;;;;;;;18.57;8.97;;;;;;;-1.65;49.05;102404.58;1709641;84;21131;-73
2022/03/11 00:10:12;;;;;;;17.87;9.10;;;;;;;-1.67;49.03;102407.48;1709837;84;21507;-71
2022/03/11 00:12:39;;;;;;;17.73;8.73;;;;;;;-1.68;49.10;102397.14;1709390;84;21003;-73
2022/03/11 00:15:08;;;;;;;19.70;9.13;;;;;;;-1.68;49.14;102392.00;1710281;83;21018;-70
2022/03/11 00:17:36;;;;;;;20.00;9.70;;;;;;;-1.67;49.15;102387.33;1709876;83;20998;-70
2022/03/11 00:20:05;;;;;;;16.10;9.10;;;;;;;-1.68;49.17;102387.73;1710002;83;21515;-71
2022/03/11 00:22:34;;;;;;;20.03;9.67;;;;;;;-1.67;49.12;102389.48;1709556;83;21022;-71
2022/03/11 00:25:01;;;;;;;16.40;8.90;;;;;;;-1.69;49.08;102390.22;1687750;84;21476;-70
2022/03/11 00:27:29;;;;;;;18.93;9.20;;;;;;;-1.70;49.17;102387.19;1710058;83;21029;-71
2022/03/11 00:29:56;;;;;;;17.40;9.30;;;;;;;-1.69;49.15;102388.94;1709869;83;21510;-71
2022/03/11 00:32:23;;;;;;;19.00;8.97;;;;;;;-1.69;49.18;102385.08;1710128;83;21118;-71
2022/03/11 00:34:50;;;;;;;20.43;9.60;;;;;;;-1.68;49.18;102386.86;1709756;83;21530;-72
2022/03/11 00:37:18;;;;;;;18.53;9.30;;;;;;;-1.69;49.10;102382.13;1710161;83;20966;-71
2022/03/11 00:39:45;;;;;;;20.03;9.60;;;;;;;-1.69;49.07;102384.70;1709855;83;21076;-71
2022/03/11 00:42:12;;;;;;;19.73;8.87;;;;;;;-1.70;49.09;102386.78;1710158;83;21550;-71
2022/03/11 00:44:40;;;;;;;16.77;9.20;;;;;;;-1.71;49.00;102388.02;1709626;83;21134;-70
2022/03/11 00:47:09;;;;;;;18.10;8.90;;;;;;;-1.71;49.07;102382.46;1710167;83;21038;-70
2022/03/11 00:49:37;;;;;;;17.93;9.73;;;;;;;-1.71;49.08;102385.44;1709962;83;21010;-71
2022/03/11 00:52:05;;;;;;;19.20;9.27;;;;;;;-1.72;49.03;102387.52;1709403;84;20949;-71
2022/03/11 00:54:32;;;;;;;21.87;9.30;;;;;;;-1.73;49.06;102381.50;1709685;84;21254;-71
2022/03/11 00:56:59;;;;;;;17.70;9.87;;;;;;;-1.72;49.08;102381.09;1709843;83;21126;-71
2022/03/11 00:59:27;;;;;;;21.67;9.80;;;;;;;-1.73;49.04;102380.22;1709831;83;21014;-71
2022/03/11 01:01:54;;;;;;;18.27;10.20;;;;;;;-1.73;49.13;102380.62;1709664;83;21521;-71
2022/03/11 01:04:22;;;;;;;22.50;10.00;;;;;;;-1.75;49.13;102382.24;1711437;83;21302;-71
2022/03/11 01:06:49;;;;;;;19.27;10.17;;;;;;;-1.75;49.04;102382.24;1709653;83;21049;-71
2022/03/11 01:09:16;;;;;;;25.30;11.40;;;;;;;-1.76;49.09;102380.49;1709564;83;21151;-74
2022/03/11 01:11:43;;;;;;;23.33;11.57;;;;;;;-1.75;49.08;102380.55;1709801;83;20975;-72
2022/03/11 01:14:11;;;;;;;22.37;11.70;;;;;;;-1.76;49.23;102383.06;1709933;83;21479;-72
2022/03/11 01:16:39;;;;;;;26.13;12.17;;;;;;;-1.78;49.32;102386.84;1709682;83;21452;-70
2022/03/11 01:19:06;;;;;;;25.07;13.37;;;;;;;-1.78;49.45;102382.11;1709919;83;21069;-71
2022/03/11 01:21:33;;;;;;;23.70;12.93;;;;;;;-1.81;49.56;102380.27;1709974;83;21960;-70
2022/03/11 01:24:00;;;;;;;23.80;13.17;;;;;;;-1.83;49.46;102371.23;1709642;83;21002;-76
2022/03/11 01:26:27;;;;;;;27.57;13.80;;;;;;;-1.87;49.52;102375.73;1676140;84;21089;-71
2022/03/11 01:28:54;;;;;;;28.17;15.27;;;;;;;-1.88;49.52;102373.12;1675467;85;21010;-71
2022/03/11 01:31:21;;;;;;;30.00;14.67;;;;;;;-1.90;49.58;102374.31;1675430;85;21112;-71
2022/03/11 01:33:48;;;;;;;27.23;15.17;;;;;;;-1.91;49.47;102377.71;1675184;85;21148;-74
2022/03/11 01:36:15;;;;;;;26.93;14.90;;;;;;;-1.93;49.48;102378.03;1675555;85;21014;-71
2022/03/11 01:38:43;;;;;;;28.40;15.50;;;;;;;-1.93;49.50;102375.87;1675372;85;21030;-70
2022/03/11 01:41:10;;;;;;;29.60;15.00;;;;;;;-1.94;49.53;102360.87;1675548;85;21097;-71
2022/03/11 01:43:53;;;;;;;27.73;15.43;;;;;;;-1.94;49.53;102374.09;1675372;85;21027;-71
2022/03/11 01:46:21;;;;;;;27.93;15.27;;;;;;;-1.98;49.53;102369.23;1675549;85;21947;-77
2022/03/11 01:48:48;;;;;;;29.70;14.43;;;;;;;-1.99;49.61;102356.33;1675213;85;21085;-70
2022/03/11 01:51:17;;;;;;;27.87;14.80;;;;;;;-2.00;49.66;102363.55;1675549;85;21010;-71
2022/03/11 01:53:45;;;;;;;32.60;16.37;;;;;;;-2.04;49.71;102359.55;1675329;85;21041;-70
2022/03/11 01:56:14;;;;;;;27.20;14.40;;;;;;;-2.07;49.73;102360.70;1675719;85;21128;-70
2022/03/11 01:58:41;;;;;;;30.03;15.83;;;;;;;-2.09;49.71;102357.17;1675225;85;21670;-70
2022/03/11 02:01:09;;;;;;;30.33;15.30;;;;;;;-2.11;49.73;102351.48;1675546;85;21551;-70
2022/03/11 02:03:37;;;;;;;26.93;14.60;;;;;;;-2.14;49.73;102352.22;1675460;85;21098;-70
2022/03/11 02:06:06;;;;;;;28.10;15.07;;;;;;;-2.16;49.76;102350.39;1675262;84;21542;-70
2022/03/11 02:08:35;;;;;;;31.20;16.32;;;;;;;-2.17;49.75;102348.64;1675540;85;21046;-70
2022/03/11 02:11:03;;;;;;;25.93;14.43;;;;;;;-2.18;49.79;102359.33;1675275;85;21148;-69
2022/03/11 02:13:49;;;;;;;29.70;15.77;;;;;;;-2.21;49.83;102357.91;1675391;85;21304;-69
2022/03/11 02:16:27;;;;;;;32.17;15.20;;;;;;;-2.23;49.88;102358.23;1675215;85;21045;-70
2022/03/11 02:18:54;;;;;;;31.47;14.53;;;;;;;-2.25;49.91;102362.41;1675731;85;20996;-70
2022/03/11 02:21:23;;;;;;;25.20;13.40;;;;;;;-2.27;49.98;102358.50;1675335;85;21499;-70
2022/03/11 02:23:54;;;;;;;30.93;15.23;;;;;;;-2.29;50.00;102360.11;1675510;85;21930;-69
2022/03/11 02:26:24;;;;;;;28.10;14.97;;;;;;;-2.30;50.07;102361.30;1675195;85;20974;-73
2022/03/11 02:28:54;;;;;;;29.20;14.98;;;;;;;-2.31;50.18;102368.55;1675632;85;21605;-71
2022/03/11 02:31:25;;;;;;;32.58;15.28;;;;;;;-2.33;50.28;102365.92;1675414;85;21488;-71
2022/03/11 02:33:53;;;;;;;27.40;14.05;;;;;;;-2.34;50.29;102363.27;1675745;85;21117;-74
2022/03/11 02:36:20;;;;;;;29.73;14.20;;;;;;;-2.37;50.34;102361.84;1675260;85;21142;-71
2022/03/11 02:38:48;;;;;;;30.43;14.20;;;;;;;-2.37;50.46;102359.28;1675511;85;21093;-72
2022/03/11 02:41:15;;;;;;;25.80;14.17;;;;;;;-2.39;50.48;102364.73;1675419;85;21463;-71
2022/03/11 02:43:43;;;;;;;28.07;13.60;;;;;;;-2.40;50.50;102360.42;1675507;85;21089;-71
2022/03/11 02:46:11;;;;;;;29.43;14.80;;;;;;;-2.44;50.53;102352.08;1675271;85;21014;-74
2022/03/11 02:48:39;;;;;;;25.13;13.60;;;;;;;-2.44;50.55;102355.93;1675552;85;21132;-70
2022/03/11 02:51:07;;;;;;;29.93;14.10;;;;;;;-2.47;50.69;102360.14;1675258;85;21273;-70
2022/03/11 02:53:40;;;;;;;24.10;12.83;;;;;;;-2.49;50.71;102360.46;1675479;85;21007;-70
2022/03/11 02:56:04;;;;;;;23.57;13.23;;;;;;;-2.51;50.79;102361.19;1674668;85;21045;-70
2022/03/11 02:58:33;;;;;;;26.60;13.17;;;;;;;-2.53;50.80;102362.80;1675361;85;21086;-70
2022/03/11 03:01:04;;;;;;;22.40;12.23;;;;;;;-2.55;50.85;102359.27;1675427;85;21304;-71
2022/03/11 03:03:31;;;;;;;28.55;13.05;;;;;;;-2.58;50.77;102354.86;1675523;85;21495;-70
2022/03/11 03:05:59;;;;;;;25.97;12.37;;;;;;;-2.59;50.93;102353.11;1675267;85;21070;-73
2022/03/11 03:08:26;;;;;;;22.33;12.70;;;;;;;-2.61;51.05;102356.00;1695002;84;21105;-70
2022/03/11 03:10:53;;;;;;;24.27;12.30;;;;;;;-2.62;51.08;102358.11;1690465;84;21093;-71
2022/03/11 03:13:20;;;;;;;23.87;12.27;;;;;;;-2.62;51.07;102358.52;1690865;84;21931;-70
2022/03/11 03:15:47;;;;;;;26.30;13.23;;;;;;;-2.63;51.09;102356.73;1690473;84;21523;-70
2022/03/11 03:18:15;;;;;;;26.00;13.00;;;;;;;-2.65;51.02;102354.11;1690612;84;21045;-70
2022/03/11 03:20:42;;;;;;;24.63;12.57;;;;;;;-2.65;51.04;102355.39;1690786;84;21050;-70
2022/03/11 03:23:09;;;;;;;24.80;12.77;;;;;;;-2.66;51.03;102354.93;1690648;84;21514;-70
2022/03/11 03:25:37;;;;;;;24.40;12.93;;;;;;;-2.66;51.03;102355.30;1690613;84;21159;-70
2022/03/11 03:28:04;;;;;;;25.63;12.73;;;;;;;-2.69;51.06;102352.19;1690453;84;21010;-70
2022/03/11 03:30:32;;;;;;;26.43;13.17;;;;;;;-2.71;51.22;102358.55;1690534;84;21046;-70
2022/03/11 03:32:59;;;;;;;24.40;11.87;;;;;;;-2.72;51.37;102355.89;1690624;84;21021;-70
2022/03/11 03:35:26;;;;;;;29.10;14.00;;;;;;;-2.75;51.53;102357.91;1690500;84;21037;-70
2022/03/11 03:37:53;;;;;;;27.13;13.70;;;;;;;-2.75;51.48;102357.03;1690568;84;21100;-70
2022/03/11 03:40:20;;;;;;;27.17;13.40;;;;;;;-2.77;51.73;102351.84;1690525;84;21001;-70
2022/03/11 03:42:48;;;;;;;28.40;13.67;;;;;;;-2.78;51.98;102352.63;1690483;84;21014;-70
2022/03/11 03:45:15;;;;;;;24.60;13.03;;;;;;;-2.81;51.94;102358.89;1690495;84;21018;-74
2022/03/11 03:47:42;;;;;;;25.67;13.70;;;;;;;-2.84;51.98;102358.75;1690694;84;21033;-74
2022/03/11 03:50:10;;;;;;;24.63;13.27;;;;;;;-2.85;51.93;102358.69;1690565;84;21237;-71
2022/03/11 03:52:38;;;;;;;30.07;15.27;;;;;;;-2.86;52.08;102361.63;1690790;84;21018;-70
2022/03/11 03:55:07;;;;;;;30.33;14.70;;;;;;;-2.90;52.05;102366.16;1690532;84;21025;-71
2022/03/11 03:57:35;;;;;;;28.37;14.73;;;;;;;-2.95;52.20;102365.91;1690817;84;21088;-81
2022/03/11 04:00:03;;;;;;;27.43;14.53;;;;;;;-2.96;52.26;102369.70;1690631;84;21455;-75
2022/03/11 04:02:32;;;;;;;27.42;12.80;;;;;;;-3.00;52.37;102366.49;1689635;84;21125;-74
2022/03/11 04:05:00;;;;;;;29.63;15.10;;;;;;;-3.02;52.58;102365.52;1690383;84;21555;-70
2022/03/11 04:07:27;;;;;;;25.87;14.03;;;;;;;-3.05;52.65;102362.41;1684230;84;21047;-70
2022/03/11 04:09:56;;;;;;;26.93;14.10;;;;;;;-3.09;52.57;102363.06;1675485;85;21045;-70
2022/03/11 04:12:24;;;;;;;27.20;14.63;;;;;;;-3.14;52.69;102361.55;1675802;85;21083;-70
2022/03/11 04:14:51;;;;;;;29.73;14.37;;;;;;;-3.18;52.90;102354.92;1675439;85;21145;-70
2022/03/11 04:17:18;;;;;;;28.03;14.27;;;;;;;-3.21;53.01;102361.19;1675636;85;21451;-70
2022/03/11 04:19:45;;;;;;;26.00;13.43;;;;;;;-3.24;53.20;102361.00;1675231;85;21010;-70
2022/03/11 04:22:12;;;;;;;26.67;13.83;;;;;;;-3.27;53.31;102363.41;1675231;85;21026;-70
2022/03/11 04:24:39;;;;;;;30.10;14.00;;;;;;;-3.30;53.31;102356.84;1675191;85;21520;-70
2022/03/11 04:27:11;;;;;;;29.57;14.20;;;;;;;-3.36;53.45;102350.60;1675318;85;21247;-69
2022/03/11 04:29:38;;;;;;;;;;;;;;;-3.39;53.68;102353.42;1677678;85;21046;-76
2022/03/11 04:32:06;;;;;;;26.27;14.27;;;;;;;-3.42;53.83;102359.27;1675526;85;20190;-72
2022/03/11 04:34:35;;;;;;;24.35;12.37;;;;;;;-3.42;53.87;102359.67;1675306;85;21069;-70
2022/03/11 04:37:03;;;;;;;25.37;13.23;;;;;;;-3.46;53.93;102356.09;1675295;85;21049;-79
2022/03/11 04:39:31;;;;;;;25.30;12.37;;;;;;;-3.47;53.88;102363.68;1675185;85;21253;-70
2022/03/11 04:42:00;;;;;;;26.87;13.50;;;;;;;-3.51;54.03;102363.06;1675195;85;21527;-69
2022/03/11 04:44:27;;;;;;;24.97;13.00;;;;;;;-3.54;54.26;102359.93;1675176;85;20946;-70
2022/03/11 04:46:54;;;;;;;26.07;12.97;;;;;;;-3.54;54.32;102366.75;1675245;85;21077;-70
2022/03/11 04:49:21;;;;;;;23.33;12.37;;;;;;;-3.55;54.45;102364.97;1675525;85;21016;-70
2022/03/11 04:51:48;;;;;;;26.97;13.30;;;;;;;-3.59;54.43;102358.41;1675296;85;21496;-69
2022/03/11 04:54:15;;;;;;;23.83;12.17;;;;;;;-3.59;54.51;102367.78;1675091;85;20942;-70
2022/03/11 04:56:43;;;;;;;25.67;12.17;;;;;;;-3.60;54.67;102364.34;1675242;85;21026;-70
2022/03/11 04:59:10;;;;;;;25.53;12.60;;;;;;;-3.60;54.69;102361.78;1675384;85;21007;-70
2022/03/11 05:01:37;;;;;;;23.63;12.83;;;;;;;-3.60;54.77;102361.78;1675140;85;21302;-72
2022/03/11 05:04:04;;;;;;;28.60;13.40;;;;;;;-3.63;54.87;102361.63;1675455;85;21308;-73
2022/03/11 05:06:32;;;;;;;25.20;13.67;;;;;;;-3.64;54.98;102358.97;1675201;85;21001;-74
2022/03/11 05:09:00;;;;;;;29.60;12.87;;;;;;;-3.64;55.20;102357.69;1675042;84;21073;-71
2022/03/11 05:11:27;;;;;;;32.50;14.30;;;;;;;-3.65;55.07;102363.62;1675169;85;21482;-70
2022/03/11 05:13:54;;;;;;;27.30;13.37;;;;;;;-3.65;55.05;102367.06;1675263;85;21027;-70
2022/03/11 05:16:22;;;;;;;25.57;12.80;;;;;;;-3.69;55.23;102361.27;1675258;85;21503;-87
2022/03/11 05:18:49;;;;;;;24.40;12.57;;;;;;;-3.70;55.49;102364.66;1675174;85;21045;-71
2022/03/11 05:21:16;;;;;;;28.03;13.30;;;;;;;-3.70;55.48;102365.06;1675148;85;21034;-70
2022/03/11 05:23:43;;;;;;;29.70;13.03;;;;;;;-3.72;55.54;102367.52;1675235;85;20969;-70
2022/03/11 05:26:24;;;;;;;26.57;13.90;;;;;;;-3.73;55.70;102364.90;1672918;85;21305;-86
2022/03/11 05:28:38;;;;;;;30.63;14.43;;;;;;;-3.73;55.83;102363.62;1666184;85;21199;-83
2022/03/11 05:31:05;;;;;;;29.83;14.23;;;;;;;-3.75;55.69;102358.80;1661955;85;21483;-85
2022/03/11 05:33:32;;;;;;;23.87;12.70;;;;;;;-3.76;55.88;102366.02;1681154;85;21467;-70
2022/03/11 05:35:59;;;;;;;26.37;13.50;;;;;;;-3.77;55.98;102361.67;1681114;85;20930;-73
2022/03/11 05:38:27;;;;;;;27.27;13.40;;;;;;;-3.78;55.97;102358.24;1681098;85;21050;-70
2022/03/11 05:40:54;;;;;;;25.33;13.13;;;;;;;-3.78;55.98;102368.90;1680755;85;21138;-84
2022/03/11 05:43:21;;;;;;;24.97;12.53;;;;;;;-3.77;56.21;102372.80;1689394;83;21033;-82
2022/03/11 05:45:47;;;;;;;29.57;12.70;;;;;;;-3.77;56.11;102368.95;1717048;83;21024;-83
2022/03/11 05:48:14;;;;;;;26.20;12.67;;;;;;;-3.76;56.21;102368.59;1716736;83;21485;-82
2022/03/11 05:50:43;;;;;;;25.80;12.90;;;;;;;-3.74;56.21;102364.02;1709743;83;21061;-82
2022/03/11 05:53:10;;;;;;;28.20;12.97;;;;;;;-3.73;56.06;102369.62;1709518;84;21162;-82
2022/03/11 05:55:37;;;;;;;21.93;11.37;;;;;;;-3.73;56.12;102373.46;1717351;83;21490;-82
2022/03/11 05:58:04;;;;;;;28.10;13.47;;;;;;;-3.70;56.23;102373.63;1705103;82;21025;-81
2022/03/11 06:00:32;;;;;;;25.03;12.13;;;;;;;-3.67;56.24;102375.47;1704631;83;37887;-83
2022/03/11 06:02:59;;;;;;;26.40;11.83;;;;;;;-3.66;56.15;102378.13;1700543;83;21060;-83
2022/03/11 06:05:26;;;;;;;22.70;11.37;;;;;;;-3.62;56.16;102371.47;1703384;83;21935;-83
2022/03/11 06:07:53;;;;;;;24.63;12.30;;;;;;;-3.62;56.03;102381.31;1699128;83;21074;-82
2022/03/11 06:10:20;;;;;;;22.70;11.20;;;;;;;-3.58;56.19;102373.38;1640709;87;21030;-82
2022/03/11 06:12:47;;;;;;;21.77;11.77;;;;;;;-3.53;56.26;102376.19;1643078;86;21037;-82
2022/03/11 06:15:15;;;;;;;28.13;13.23;;;;;;;-3.48;56.14;102377.31;1679149;83;21033;-82
2022/03/11 06:17:43;;;;;;;23.20;12.20;;;;;;;-3.46;56.18;102377.88;1653885;85;21364;-82
2022/03/11 06:20:13;;;;;;;23.37;11.33;;;;;;;-3.41;56.07;102385.41;1675130;84;21046;-76
2022/03/11 06:22:49;;;;;;;25.12;11.50;;;;;;;-3.39;55.91;102385.47;1679085;84;21033;-83
2022/03/11 06:25:17;;;;;;;25.20;11.43;;;;;;;-3.37;55.80;102384.75;1690928;84;20973;-83
2022/03/11 06:27:45;;;;;;;24.97;11.47;;;;;;;-3.33;55.76;102388.75;1678419;84;21072;-83
2022/03/11 06:30:14;;;;;;;27.50;12.53;;;;;;;-3.30;55.71;102389.78;1704148;84;21143;-82
2022/03/11 06:32:43;;;;;;;24.67;12.30;;;;;;;-3.25;55.67;102393.88;1707204;84;21013;-81
2022/03/11 06:35:13;;;;;;;24.87;11.47;;;;;;;-3.22;55.73;102394.90;1707445;84;21510;-83
2022/03/11 06:37:42;;;;;;;22.05;11.53;;;;;;;-3.18;55.54;102389.55;1707569;82;20997;-83
2022/03/11 06:40:11;;;;;;;25.03;12.27;;;;;;;-3.14;55.35;102396.17;1670213;84;21089;-82
2022/03/11 06:42:41;;;;;;;21.83;11.53;;;;;;;-3.10;55.34;102401.45;1699680;84;21165;-82
2022/03/11 06:45:10;;;;;;;24.10;11.75;;;;;;;-3.07;55.15;102404.20;1693413;83;27874;-83
2022/03/11 06:47:37;;;;;;;21.77;11.10;;;;;;;-3.03;55.22;102406.11;1666798;84;21586;-78
2022/03/11 06:50:06;;;;;;;22.77;11.80;;;;;;;-2.96;55.22;102413.33;1679043;84;21014;-83
2022/03/11 06:52:54;;;;;;;26.07;11.13;;;;;;;-2.89;55.12;102408.95;1678916;85;21491;-81
2022/03/11 06:55:21;;;;;;;22.57;11.23;;;;;;;-2.85;55.07;102411.30;1628293;87;21873;-83
2022/03/11 06:57:48;;;;;;;20.57;11.50;;;;;;;-2.78;55.00;102406.52;1620566;87;21155;-83
2022/03/11 07:00:16;;;;;;;26.53;12.23;;;;;;;-2.70;55.07;102405.63;1615320;88;21173;-73
2022/03/11 07:02:44;;;;;;;24.07;12.03;;;;;;;-2.63;54.78;102401.28;1598324;89;21527;-82
2022/03/11 07:05:11;;;;;;;25.27;11.33;;;;;;;-2.61;54.50;102406.06;1597908;89;21621;-82
2022/03/11 07:07:39;;;;;;;24.60;11.40;;;;;;;-2.57;54.36;102403.27;1596395;89;21169;-81
2022/03/11 07:10:12;;;;;;;23.87;11.50;;;;;;;-2.52;54.52;102402.68;1566651;91;21095;-81
2022/03/11 07:12:39;;;;;;;23.83;11.73;;;;;;;-2.46;54.40;102400.81;1579566;90;21038;-84
2022/03/11 07:15:08;;;;;;;27.23;11.57;;;;;;;-2.39;54.24;102407.11;1578806;90;21072;-86
2022/03/11 07:17:35;;;;;;;22.73;11.77;;;;;;;-2.32;54.07;102410.46;1579446;90;21230;-86
2022/03/11 07:20:05;;;;;;;22.60;10.87;;;;;;;-2.25;54.13;102406.95;1586128;90;22203;-79
2022/03/11 07:22:32;;;;;;;24.43;11.33;;;;;;;-2.17;53.98;102404.75;1592543;87;21025;-83
2022/03/11 07:24:59;;;;;;;20.77;11.33;;;;;;;-2.07;54.17;102405.66;1613371;88;21480;-80
2022/03/11 07:27:26;;;;;;;23.63;11.30;;;;;;;-1.98;53.76;102404.34;1611860;88;21059;-83
2022/03/11 07:29:56;;;;;;;20.87;11.13;;;;;;;-1.90;53.62;102401.30;1615290;87;21307;-87
2022/03/11 07:32:26;;;;;;;24.10;11.23;;;;;;;-1.84;53.40;102389.14;1622405;87;21183;-86
2022/03/11 07:34:53;;;;;;;21.27;10.50;;;;;;;-1.77;53.17;102395.05;1635556;86;21054;-84
2022/03/11 07:37:21;;;;;;;22.47;11.63;;;;;;;-1.70;53.24;102395.77;1629935;88;21045;-86
2022/03/11 07:39:49;;;;;;;21.47;10.93;;;;;;;-1.60;53.11;102397.09;1631366;88;21039;-81
2022/03/11 07:42:16;;;;;;;19.93;10.00;;;;;;;-1.50;52.86;102394.09;1632147;87;21096;-84
2022/03/11 07:44:44;;;;;;;17.43;9.53;;;;;;;-1.40;52.75;102391.53;1606534;89;21145;-81
2022/03/11 07:47:11;;;;;;;19.63;10.03;;;;;;;-1.29;52.25;102390.30;1606823;89;21538;-80
2022/03/11 07:49:37;;;;;;;19.23;9.17;;;;;;;-1.19;51.75;102392.84;1580101;90;21115;-82
2022/03/11 07:52:05;;;;;;;14.97;7.90;;;;;;;-1.09;51.69;102387.29;1606330;89;21055;-84
2022/03/11 07:54:32;;;;;;;17.97;8.13;;;;;;;-0.96;51.45;102392.15;1633135;87;21565;-81
2022/03/11 07:56:59;;;;;;;13.80;7.83;;;;;;;-0.84;50.88;102397.34;1605298;89;21096;-79
2022/03/11 07:59:29;;;;;;;15.13;8.30;;;;;;;-0.73;50.50;102398.66;1631863;86;21487;-75
2022/03/11 08:01:55;;;;;;;14.67;7.53;;;;;;;-0.61;49.93;102398.27;1639855;87;21054;-74
2022/03/11 08:04:24;;;;;;;12.80;6.50;;;;;;;-0.51;49.63;102395.26;1641201;87;21052;-77
2022/03/11 08:06:51;;;;;;;15.30;7.43;;;;;;;-0.40;49.49;102393.98;1641480;87;21052;-83
2022/03/11 08:09:18;;;;;;;16.30;7.47;;;;;;;-0.29;49.08;102399.16;1641242;87;21236;-79
2022/03/11 08:11:45;;;;;;;12.93;6.63;;;;;;;-0.18;48.86;102395.72;1653249;86;21077;-79
2022/03/11 08:14:13;;;;;;;13.47;7.37;;;;;;;-0.07;48.59;102396.13;1652252;86;21491;-75
2022/03/11 08:16:41;;;;;;;24.77;11.30;;;;;;;0.06;48.55;102388.05;1643321;85;21026;-78
2022/03/11 08:19:09;;;;;;;14.53;7.80;;;;;;;0.17;48.05;102382.02;1643039;85;21042;-76
2022/03/11 08:21:37;;;;;;;16.23;7.10;;;;;;;0.30;47.99;102378.17;1643257;87;21971;-80
2022/03/11 08:24:05;;;;;;;12.40;6.83;;;;;;;0.41;47.43;102363.95;1642923;87;21061;-77
2022/03/11 08:26:32;;;;;;;11.93;6.33;;;;;;;0.51;46.84;102374.22;1643009;87;21014;-78
2022/03/11 08:29:00;;;;;;;12.73;6.73;;;;;;;0.59;46.31;102385.69;1643095;87;21030;-81
2022/03/11 08:31:27;;;;;;;22.60;10.03;;;;;;;0.66;45.71;102379.91;1643104;87;21665;-79
2022/03/11 08:33:54;;;;;;;65.50;28.63;;;;;;;0.76;45.43;102374.25;1643062;85;21163;-78
2022/03/11 08:36:21;;;;;;;48.53;22.33;;;;;;;0.84;44.94;102377.10;1642939;87;21045;-77
2022/03/11 08:38:48;;;;;;;28.10;11.77;;;;;;;0.96;44.73;102381.80;1643176;87;21022;-77
2022/03/11 08:41:16;;;;;;;29.70;13.07;;;;;;;1.05;44.49;102382.10;1642969;85;21046;-80
2022/03/11 08:43:48;;;;;;;29.37;15.17;;;;;;;1.16;44.39;102385.92;1643121;86;21050;-79
2022/03/11 08:46:12;;;;;;;14.83;8.00;;;;;;;1.33;44.40;102383.89;1642969;87;21142;-82
2022/03/11 08:48:41;;;;;;;11.53;5.93;;;;;;;1.49;43.95;102387.86;1622881;87;21042;-79
2022/03/11 08:51:08;;;;;;;10.60;6.03;;;;;;;1.62;43.73;102385.27;1634477;87;21466;-79
2022/03/11 08:53:35;;;;;;;12.90;7.10;;;;;;;1.72;43.24;102383.44;1634349;87;21052;-78
2022/03/11 08:56:03;;;;;;;13.33;6.53;;;;;;;1.83;43.21;102384.64;1636056;87;21640;-78
2022/03/11 08:58:30;;;;;;;12.83;6.47;;;;;;;1.92;42.93;102388.80;1654394;86;21145;-82
2022/03/11 09:00:57;;;;;;;11.93;6.60;;;;;;;2.02;42.71;102380.88;1647678;86;21482;-81
2022/03/11 09:03:25;;;;;;;10.97;6.10;;;;;;;2.13;42.53;102379.91;1615853;88;21066;-79
2022/03/11 09:05:53;;;;;;;15.30;8.47;;;;;;;2.17;42.52;102367.54;1614581;88;21051;-81
2022/03/11 09:08:21;;;;;;;13.70;7.70;;;;;;;2.21;42.23;102379.29;1617705;87;21075;-77
2022/03/11 09:10:48;;;;;;;15.60;7.60;;;;;;;2.31;41.98;102372.69;1622557;88;21145;-80
2022/03/11 09:13:15;;;;;;;14.40;7.67;;;;;;;2.41;41.61;102378.59;1622524;88;21087;-81
2022/03/11 09:15:41;;;;;;;11.20;6.97;;;;;;;2.48;41.57;102369.70;1622741;87;21036;-83
2022/03/11 09:18:10;;;;;;;13.73;6.50;;;;;;;2.53;41.37;102366.41;1622887;88;20967;-84
2022/03/11 09:20:37;;;;;;;14.50;8.07;;;;;;;2.62;41.39;102372.24;1622642;88;21059;-83
2022/03/11 09:23:04;;;;;;;13.90;7.60;;;;;;;2.70;41.07;102359.09;1622773;88;21147;-79
2022/03/11 09:25:31;;;;;;;10.43;6.03;;;;;;;2.80;40.99;102364.98;1622564;88;21039;-73
2022/03/11 09:27:58;;;;;;;11.67;6.40;;;;;;;2.89;40.96;102358.73;1622637;88;21051;-78
2022/03/11 09:30:25;;;;;;;9.87;5.70;;;;;;;3.01;40.84;102358.16;1622586;88;21529;-76
2022/03/11 09:32:52;;;;;;;11.03;5.70;;;;;;;3.20;40.91;102365.12;1622670;87;21064;-78
2022/03/11 09:35:19;;;;;;;9.93;6.27;;;;;;;3.35;40.47;102362.88;1622600;88;21103;-74
2022/03/11 09:37:46;;;;;;;11.83;6.20;;;;;;;3.49;40.24;102348.95;1622631;87;21035;-79
2022/03/11 09:40:16;;;;;;;8.83;5.13;;;;;;;3.61;39.96;102357.03;1622642;87;21036;-80
2022/03/11 09:42:43;;;;;;;9.40;5.80;;;;;;;3.76;39.90;102350.00;1622666;87;21024;-84
2022/03/11 09:45:11;;;;;;;11.97;5.73;;;;;;;3.88;39.45;102354.58;1622712;88;21557;-81
2022/03/11 09:47:39;;;;;;;13.40;7.47;;;;;;;3.98;39.20;102343.14;1622614;88;22146;-82
2022/03/11 09:50:08;;;;;;;10.43;6.07;;;;;;;4.09;39.20;102346.39;1622735;88;21533;-81
2022/03/11 09:52:35;;;;;;;10.20;5.70;;;;;;;4.24;38.99;102338.51;1622672;88;21084;-79
2022/03/11 09:55:02;;;;;;;10.83;5.90;;;;;;;4.38;38.91;102339.17;1639830;85;21031;-78
2022/03/11 09:57:29;;;;;;;11.00;6.63;;;;;;;4.54;38.46;102346.42;1630074;88;21027;-80
2022/03/11 09:59:57;;;;;;;11.93;7.30;;;;;;;4.68;38.52;102341.09;1658415;86;21150;-80
2022/03/11 10:02:24;;;;;;;16.40;8.77;;;;;;;4.86;38.56;102344.42;1630135;88;21544;-88
2022/03/11 10:04:53;;;;;;;13.23;7.67;;;;;;;5.05;38.39;102340.86;1658294;86;21083;-85
2022/03/11 10:07:28;;;;;;;16.20;9.63;;;;;;;5.23;38.11;102338.53;1630246;88;21463;-82
2022/03/11 10:10:03;;;;;;;10.53;5.80;;;;;;;5.35;37.40;102341.34;1657513;86;21050;-81
2022/03/11 10:12:31;;;;;;;10.93;6.40;;;;;;;5.43;37.23;102343.17;1625384;88;21137;-84
2022/03/11 10:15:04;;;;;;;11.90;7.77;;;;;;;5.48;36.81;102337.19;1658413;86;21501;-79
2022/03/11 10:17:41;;;;;;;9.67;5.97;;;;;;;5.58;36.83;102337.78;1630216;88;21560;-79
2022/03/11 10:20:16;;;;;;;11.13;6.73;;;;;;;5.76;36.89;102335.89;1658664;86;21046;-80
2022/03/11 10:22:47;;;;;;;12.83;7.37;;;;;;;5.96;36.42;102341.39;1630139;88;21011;-80
2022/03/11 10:25:23;;;;;;;10.43;6.47;;;;;;;6.13;36.31;102336.83;1658474;86;21177;-80
2022/03/11 10:28:06;;;;;;;9.73;6.07;;;;;;;6.25;35.94;102336.52;1629730;88;21048;-88
2022/03/11 10:30:38;;;;;;;14.77;9.27;;;;;;;6.36;35.40;102329.27;1656811;86;21046;-83
2022/03/11 10:33:11;;;;;;;9.87;6.50;;;;;;;6.55;35.37;102347.29;1630018;88;21031;-82
2022/03/11 10:35:47;;;;;;;14.67;8.63;;;;;;;6.75;35.32;102346.19;1658483;86;21027;-89
2022/03/11 10:38:17;;;;;;;9.57;5.90;;;;;;;7.02;34.66;102340.36;1630217;87;21080;-87
2022/03/11 10:40:57;;;;;;;12.50;7.37;;;;;;;7.21;34.89;102337.48;1629216;87;21131;-84
2022/03/11 10:43:28;;;;;;;11.73;7.80;;;;;;;7.44;34.84;102338.52;1647383;86;26978;-89
2022/03/11 10:46:11;;;;;;;12.73;8.07;;;;;;;7.66;34.49;102339.53;1659717;86;21052;-92
2022/03/11 10:48:46;;;;;;;12.03;8.13;;;;;;;7.81;34.16;102350.48;1651250;85;21193;-87
2022/03/11 10:51:27;;;;;;;28.97;9.37;;;;;;;7.96;34.03;102337.52;1659049;86;21508;-83
2022/03/11 10:53:56;;;;;;;8.50;6.47;;;;;;;8.09;34.07;102329.28;1659744;86;21033;-79
2022/03/11 10:56:41;;;;;;;15.47;8.20;;;;;;;8.30;33.75;102341.56;1664949;85;21084;-81
2022/03/11 10:59:26;;;;;;;10.47;6.67;;;;;;;8.43;33.51;102331.63;1662399;86;21021;-87
2022/03/11 11:01:57;;;;;;;11.60;6.30;;;;;;;8.68;33.46;102326.02;1662570;86;21040;-75
2022/03/11 11:04:26;;;;;;;13.53;8.10;;;;;;;8.71;32.91;102324.72;1662236;86;21085;-80
2022/03/11 11:06:54;;;;;;;9.07;6.93;;;;;;;8.69;32.69;102316.44;1662438;86;21045;-85
2022/03/11 11:09:23;;;;;;;14.17;8.90;;;;;;;8.84;32.62;102316.88;1662341;85;21047;-83
2022/03/11 11:11:51;;;;;;;8.70;6.03;;;;;;;8.93;32.09;102312.54;1662592;86;21059;-83
2022/03/11 11:14:18;;;;;;;9.83;6.17;;;;;;;8.98;32.22;102307.32;1662631;86;21082;-85
2022/03/11 11:16:48;;;;;;;11.00;6.30;;;;;;;9.17;32.43;102309.47;1662827;85;21185;-84
2022/03/11 11:19:19;;;;;;;12.88;6.80;;;;;;;9.21;31.90;102292.91;1661718;86;21125;-81